WEATHER DATA

YESTERDAY
Time Temp. Dewp. Hum. Wind dir Wind speed Wind gust Bar. 1h Prec. 24h Prec.
00:08 16.9 12.8 77 270 0.3 1.1 1023.8 0.0000 0.0000
00:17 16.8 12.7 77 270 0.3 1.1 1023.8 0.0000 0.0000
00:24 16.7 12.8 78 270 0.3 1.1 1023.2 0.0000 0.0000
03:20 16.4 10.9 70 270 0.3 0.8 1023.2 0.0000 0.0000
03:29 16.4 10.9 70 220 0.3 1.1 1023.2 0.0000 0.0000
03:39 16.3 10.6 69 237 0.3 1.1 1023.2 0.0000 0.0000
03:49 16.3 10.6 69 270 0.3 1.1 1023.1 0.0000 0.0000
04:00 16.3 10.6 69 225 0.3 1.4 1023.2 0.0000 0.0000
04:09 16.3 10.6 69 270 0.3 1.1 1023.2 0.0000 0.0000
04:19 16.4 10.7 69 219 0.3 1.1 1023.2 0.0000 0.0000
04:30 16.5 11 70 270 0.3 1.1 1023.1 0.0000 0.0000
04:40 16.5 11 70 220 0.3 1.1 1023.1 0.0000 0.0000
04:49 16.5 11 70 270 0.3 1.1 1023.1 0.0000 0.0000
05:00 16.4 10.7 69 270 0.3 1.1 1023.1 0.0000 0.0000
05:09 16.2 10.5 69 270 0.3 1.1 1023 0.0000 0.0000
05:20 16 10.3 69 236 0.3 1.4 1022.9 0.0000 0.0000
05:29 15.8 10.1 69 270 0.3 1.1 1023 0.0000 0.0000
05:40 15.5 9.8 69 270 0.3 1.1 1023 0.0000 0.0000
05:50 15.3 9.9 70 270 0.3 1.1 1023.1 0.0000 0.0000
06:00 14.9 9.7 71 235 0.3 1.1 1023 0.0000 0.0000
06:10 14.6 9.6 72 270 0.3 1.1 1023.1 0.0000 0.0000
06:18 14.4 9.4 72 270 0.3 1.1 1023.1 0.0000 0.0000
06:30 14.3 9.3 72 270 0.3 1.1 1023.1 0.0000 0.0000
06:40 14.3 9.3 72 270 0.3 1.1 1023.1 0.0000 0.0000
06:51 14.4 9.4 72 233 0.3 1.1 1023.2 0.0000 0.0000
07:00 14.4 9.2 71 270 0.3 1.1 1023.2 0.0000 0.0000
07:10 14.4 9.4 72 270 0.3 1.1 1023.4 0.0000 0.0000
07:21 14.3 9.5 73 270 0.3 1.4 1023.4 0.0000 0.0000
07:30 14.4 9.6 73 270 0.3 1.1 1023.4 0.0000 0.0000
07:39 14.5 9.7 73 270 0.3 1.1 1023.4 0.0000 0.0000
07:50 15 10.2 73 270 0.3 0.8 1023.5 0.0000 0.0000
08:01 15.5 10.9 74 270 0.3 0.8 1023.5 0.0000 0.0000
08:11 15.9 10.9 72 270 0.3 1.1 1023.6 0.0000 0.0000
08:20 16.4 11.1 71 233 0.3 0.8 1023.6 0.0000 0.0000
08:31 17.1 10.9 67 307 0.3 1.1 1023.6 0.0000 0.0000
08:41 17.8 11.1 65 327 0.3 1.4 1023.6 0.0000 0.0000
08:49 18.7 11.3 62 315 0.3 1.4 1023.6 0.0000 0.0000
09:01 19.6 11.6 60 315 0.3 1.1 1023.6 0.0000 0.0000
09:11 20.5 12 58 302 0.3 1.1 1023.6 0.0000 0.0000
09:20 21.4 12.3 56 270 0.3 1.1 1023.6 0.0000 0.0000
09:31 21.8 12.4 55 180 0.8 1.1 1023.6 0.0000 0.0000
09:41 22 12.6 55 173 0.3 1.1 1023.7 0.0000 0.0000
09:51 22.3 13.1 56 180 0.3 1.4 1023.7 0.0000 0.0000
10:01 22.2 12.5 54 133 1.1 1.7 1023.7 0.0000 0.0000
10:11 22.4 13.2 56 135 0.8 1.4 1023.7 0.0000 0.0000
10:22 22.8 13.3 55 135 0.8 2.5 1023.7 0.0000 0.0000
10:31 23.2 13.7 55 130 1.1 1.7 1023.7 0.0000 0.0000
10:41 23.5 14.2 56 142 0.3 1.4 1023.7 0.0000 0.0000
10:52 23.9 14.3 55 135 0.8 1.7 1023.7 0.0000 0.0000
11:02 24.6 15.2 56 135 0.3 1.4 1023.7 0.0000 0.0000
11:11 25.5 16.1 56 52 0.8 1.7 1023.7 0.0000 0.0000
11:22 26.3 16 53 11 0.8 2.8 1023.6 0.0000 0.0000
11:28 26 15.7 53 8 1.1 2.8 1023.7 0.0000 0.0000
11:40 26.5 16.1 53 355 0.3 1.7 1023.6 0.0000 0.0000
11:52 27.4 16.4 51 341 0.3 1.7 1023.6 0.0000 0.0000
12:01 27.7 16.3 50 49 0.8 2.2 1023.5 0.0000 0.0000
12:19 27.9 16.5 50 53 0.8 1.7 1023.4 0.0000 0.0000
12:32 28 16.6 50 130 0.8 1.4 1023.4 0.0000 0.0000
12:42 28.6 16.5 48 90 0.3 1.7 1023.4 0.0000 0.0000
12:52 29 16.9 48 137 0.8 2.2 1023.2 0.0000 0.0000
13:02 28.2 16.2 48 135 1.7 3.6 1023.2 0.0000 0.0000
13:12 28.5 16.8 49 68 0.8 1.7 1023.1 0.0000 0.0000
13:27 29.2 16.7 47 135 0.3 1.4 1023 0.0000 0.0000
13:37 29.4 16.9 47 135 1.1 2.2 1023 0.0000 0.0000
13:48 28.6 16.5 48 142 1.4 2.5 1022.9 0.0000 0.0000
13:53 28.6 16.8 49 15 0.8 1.1 1022.8 0.0000 0.0000
14:03 29.5 17 47 8 0.8 2.2 1022.7 0.0000 0.0000
14:13 30.2 17.3 46 135 0.8 2.2 1022.2 0.0000 0.0000
15:59 28.2 16.5 49 349 0.8 1.4 1022.2 0.0000 0.0000
16:06 28.1 16.4 49 354 0.8 1.7 1021.9 0.0000 0.0000
16:18 29 16.6 47 135 1.1 3.3 1021.8 0.0000 0.0000
16:28 28.9 16.5 47 136 1.1 2.8 1021.9 0.0000 0.0000
16:39 28.2 16.5 49 138 0.8 1.7 1021.9 0.0000 0.0000
16:48 28.5 16.1 47 137 1.4 2.5 1021.8 0.0000 0.0000
16:58 28.3 16.2 48 136 1.1 2.2 1021.8 0.0000 0.0000
17:09 27.9 16.2 49 141 1.4 3.3 1021.8 0.0000 0.0000
17:19 28 16.3 49 136 1.1 3.9 1021.7 0.0000 0.0000
17:28 28.6 16.5 48 135 1.1 2.8 1021.6 0.0000 0.0000
17:39 29.4 16.9 47 133 1.1 3.3 1021.6 0.0000 0.0000
17:49 28.8 16.4 47 143 1.7 2.8 1021.6 0.0000 0.0000
17:58 27.4 16.4 51 142 1.1 1.7 1021.5 0.0000 0.0000
18:08 28.2 16.8 50 139 0.8 1.7 1021.5 0.0000 0.0000
18:19 28.7 16.6 48 137 1.4 2.8 1021.5 0.0000 0.0000
18:29 27.9 16.2 49 146 1.4 2.8 1021.5 0.0000 0.0000
18:38 27.5 16.2 50 145 1.1 2.8 1021.5 0.0000 0.0000
18:49 27.2 16.2 51 149 0.8 2.2 1021.4 0.0000 0.0000
18:59 26.8 15.8 51 146 1.1 2.2 1021.4 0.0000 0.0000
19:09 26.1 15.2 51 141 1.1 2.5 1021.4 0.0000 0.0000
19:19 25.5 15.2 53 145 0.8 1.4 1021.4 0.0000 0.0000
19:29 24.7 15.1 55 172 0.3 1.1 1021.4 0.0000 0.0000
19:39 24 14.7 56 225 0.3 0.8 1021.5 0.0000 0.0000
19:49 23.3 14.6 58 194 0.3 0.8 1021.6 0.0000 0.0000
19:59 22.8 14.4 59 209 0.3 1.1 1021.7 0.0000 0.0000
20:09 22.4 14.3 60 208 0.3 0.8 1021.8 0.0000 0.0000
20:19 22 14.1 61 168 0.8 2.2 1021.8 0.0000 0.0000
20:29 21.6 14 62 165 0.8 1.4 1021.9 0.0000 0.0000
20:39 21.3 13.7 62 185 0.3 1.4 1022 0.0000 0.0000
20:49 21.1 13.5 62 161 0.8 1.7 1022.2 0.0000 0.0000
20:58 20.8 13.3 62 154 0.8 1.7 1022.3 0.0000 0.0000
21:10 20.5 13 62 157 0.8 1.4 1022.3 0.0000 0.0000
21:19 20.5 13 62 174 0.8 1.1 1022.3 0.0000 0.0000
21:29 20.3 12.8 62 160 0.8 1.7 1022.3 0.0000 0.0000
21:40 20 12.7 63 160 1.1 2.2 1022.3 0.0000 0.0000
21:50 19.8 12.8 64 156 1.1 2.5 1022.3 0.0000 0.0000
21:59 19.6 12.8 65 163 1.1 1.7 1022.4 0.0000 0.0000
22:09 19.5 12.8 65 161 1.1 2.2 1022.3 0.0000 0.0000
22:20 19.4 12.7 65 154 1.1 2.2 1022.3 0.0000 0.0000
22:30 19.3 12.6 65 153 1.1 2.2 1022.4 0.0000 0.0000
22:40 19.2 12.5 65 151 1.1 2.2 1022.4 0.0000 0.0000
22:50 19.2 12.5 65 167 0.8 1.7 1022.5 0.0000 0.0000
23:00 19.3 12.1 63 162 0.8 2.2 1022.4 0.0000 0.0000
23:10 19.1 12.1 64 155 1.1 2.2 1022.4 0.0000 0.0000
23:19 19.2 12 63 161 1.1 2.8 1022.5 0.0000 0.0000
23:30 19.2 11.5 61 161 1.1 2.2 1022.4 0.0000 0.0000
23:40 19.3 11.1 59 171 1.1 2.2 1022.5 0.0000 0.0000
23:50 19.4 10.9 58 171 1.1 2.5 1022.5 0.0000 0.0000

DAY STATISTIC

2018-08-19
TEMPERATURE
AVERAGE
21.8
HIGH
30.2
14:13
LOW
14.3
06:30
PRESSURE
AVERAGE
1022.8
HIGH
1023.8
00:08
LOW
1021.4
18:49
DEWPOINT
AVERAGE
13.4
HIGH
17.3
14:13
LOW
9.2
07:00
HUMIDITY
AVERAGE
60
HIGH
78
00:24
LOW
46
14:13
WIND SPEED
AVERAGE
0.7
HIGH
1.7
13:02
WIND GUST
AVERAGE
1.7
HIGH
3.9
17:19
WIND DIRECTION
PREVAILING
SE
34.5%
N
6.9
NE
2.6
E
1.7
SE
34.5
S
17.2
SW
10.3
W
22.4
NW
4.3
PRECIPITATION
RAIN HOUR
0.0
RAIN DAY
0.0
TEMPERATURE (°C)
LOW
14.3
HIGH
30.2
AVERAGE
21.8
PRESSURE (hpa)
LOW
1021.4
HIGH
1023.8
AVERAGE
1022.8
DEVICE